createdAt,value
2022-11-14T00:25:50.747Z,90.74
2022-11-14T00:54:44.832Z,90.45
2022-11-14T01:23:29.982Z,91.16
2022-11-14T01:52:24.077Z,94.93
2022-11-14T02:21:10.717Z,94.34
2022-11-14T02:49:51.541Z,97.5
2022-11-14T03:18:43.057Z,97.28
2022-11-14T03:47:27.441Z,94.39
2022-11-14T04:16:16.250Z,93.21
2022-11-14T04:45:03.064Z,93.23
2022-11-14T05:13:42.300Z,92.47
2022-11-14T05:42:29.073Z,92.83
2022-11-14T06:11:24.175Z,94.21
2022-11-14T06:39:59.299Z,93.68
2022-11-14T07:08:25.211Z,93.07
2022-11-14T07:36:53.042Z,93.42
2022-11-14T08:05:15.520Z,94.25
2022-11-14T08:33:51.656Z,93.38
2022-11-14T09:02:22.951Z,93.2
2022-11-14T09:30:57.247Z,90.43
2022-11-14T09:59:32.220Z,88.43
2022-11-14T10:28:06.106Z,88.22
2022-11-14T10:56:23.649Z,86.73
2022-11-14T11:24:53.624Z,86.7
2022-11-14T11:53:15.499Z,86.13
2022-11-14T12:21:46.895Z,85.11
2022-11-14T12:50:15.176Z,85.82
2022-11-14T13:19:11.906Z,76.81
2022-11-14T13:47:23.653Z,74.07
2022-11-14T14:16:01.390Z,72.95
2022-11-14T14:44:34.093Z,71.71
2022-11-14T15:13:12.727Z,70.21
2022-11-14T15:41:40.227Z,71.78
2022-11-14T16:10:05.597Z,79.69
2022-11-14T16:38:24.536Z,73.92
2022-11-14T17:06:54.043Z,69.88
2022-11-14T17:35:20.505Z,68.98
2022-11-14T18:03:40.232Z,73.71
2022-11-14T18:32:15.228Z,75.57
2022-11-14T19:00:53.569Z,75.59
2022-11-14T19:29:34.228Z,79.16
2022-11-14T19:58:25.226Z,80.9
2022-11-14T20:27:17.994Z,83.45
2022-11-14T20:56:01.840Z,85.76
2022-11-14T21:24:40.804Z,86.35
2022-11-14T21:53:13.277Z,87.5
2022-11-14T22:21:56.563Z,88.79
